createdAt,value
2018-04-14T00:00:50.355Z,79.00
2018-04-14T00:01:50.340Z,55.50
2018-04-14T00:02:50.321Z,64.20
2018-04-14T00:03:50.308Z,68.20
2018-04-14T00:04:50.288Z,46.40
2018-04-14T00:05:50.276Z,98.70
2018-04-14T00:06:50.258Z,80.80
2018-04-14T00:07:50.241Z,77.20
2018-04-14T00:08:50.227Z,76.70
2018-04-14T00:09:50.210Z,57.40
2018-04-14T00:10:50.195Z,84.50
2018-04-14T00:11:50.179Z,86.60
2018-04-14T00:12:50.163Z,58.40
2018-04-14T00:13:50.144Z,85.90
2018-04-14T00:14:50.131Z,84.90
2018-04-14T00:15:50.115Z,83.30
2018-04-14T00:16:50.097Z,80.50
2018-04-14T00:17:50.081Z,62.90
2018-04-14T00:18:50.065Z,53.40
2018-04-14T00:19:50.051Z,91.10
2018-04-14T00:20:50.032Z,69.70
2018-04-14T00:21:50.018Z,99.30
2018-04-14T00:22:50.000Z,80.60
2018-04-14T00:23:49.988Z,67.90
2018-04-14T00:24:49.969Z,89.00
2018-04-14T00:25:49.953Z,90.70
2018-04-14T00:26:49.937Z,46.70
2018-04-14T00:27:49.925Z,83.50
2018-04-14T00:28:49.905Z,109.00
2018-04-14T00:29:49.889Z,64.80
2018-04-14T00:30:49.871Z,79.40
2018-04-14T00:31:49.857Z,57.00
2018-04-14T00:32:49.839Z,95.10
2018-04-14T00:33:49.824Z,64.20
2018-04-14T00:34:49.809Z,77.80
2018-04-14T00:35:49.796Z,53.60
2018-04-14T00:36:49.780Z,58.10
2018-04-14T00:37:49.761Z,81.30
2018-04-14T00:38:49.744Z,79.20
2018-04-14T00:39:49.728Z,75.30
2018-04-14T00:40:49.711Z,57.30
2018-04-14T00:41:49.698Z,73.80
2018-04-14T00:42:49.682Z,101.70
2018-04-14T00:43:49.663Z,51.90
2018-04-14T00:44:49.653Z,65.20
2018-04-14T00:45:49.630Z,58.10
2018-04-14T00:46:49.614Z,56.20
2018-04-14T00:47:49.598Z,106.30
2018-04-14T00:48:49.591Z,85.60
2018-04-14T00:49:49.566Z,108.50
2018-04-14T00:50:49.550Z,114.60
2018-04-14T00:51:49.533Z,91.80
2018-04-14T00:52:49.516Z,71.60
2018-04-14T00:53:49.503Z,77.40
2018-04-14T00:54:49.486Z,94.00
2018-04-14T00:55:49.470Z,93.60
2018-04-14T00:56:49.452Z,100.70
2018-04-14T00:57:49.435Z,70.20
2018-04-14T00:58:49.427Z,73.70
2018-04-14T00:59:49.403Z,54.90
2018-04-14T01:00:49.388Z,60.50
2018-04-14T01:01:49.373Z,78.50
2018-04-14T01:02:49.358Z,60.10
2018-04-14T01:03:49.341Z,85.90
2018-04-14T01:04:49.334Z,67.10
2018-04-14T01:05:49.305Z,70.50
2018-04-14T01:06:49.298Z,127.90
2018-04-14T01:07:49.275Z,92.00
2018-04-14T01:08:49.257Z,78.50
2018-04-14T01:09:49.243Z,102.60
2018-04-14T01:10:49.227Z,121.20
2018-04-14T01:11:49.213Z,96.70
2018-04-14T01:12:49.194Z,74.20
2018-04-14T01:13:49.180Z,116.80
2018-04-14T01:14:49.164Z,48.60
2018-04-14T01:15:49.145Z,90.10
2018-04-14T01:16:49.130Z,109.40
2018-04-14T01:17:49.112Z,104.50
2018-04-14T01:18:49.097Z,87.00
2018-04-14T01:19:49.083Z,73.30
2018-04-14T01:20:49.063Z,101.20
2018-04-14T01:21:49.047Z,94.60
2018-04-14T01:22:49.031Z,124.70
2018-04-14T01:23:49.020Z,109.10
2018-04-14T01:24:49.005Z,94.40
2018-04-14T01:25:48.992Z,128.70
2018-04-14T01:26:48.965Z,137.40
2018-04-14T01:27:48.953Z,78.90
2018-04-14T01:28:48.933Z,84.20
2018-04-14T01:29:48.922Z,99.70
2018-04-14T01:30:48.901Z,100.20
2018-04-14T01:31:48.884Z,104.00
2018-04-14T01:32:48.866Z,86.50
2018-04-14T01:33:48.851Z,133.90
2018-04-14T01:34:48.840Z,130.60
2018-04-14T01:35:48.819Z,139.80
2018-04-14T01:36:48.803Z,130.70
2018-04-14T01:37:48.787Z,146.50
2018-04-14T01:38:48.769Z,87.20
2018-04-14T01:39:48.752Z,113.10
2018-04-14T01:40:48.736Z,96.40
2018-04-14T01:41:48.719Z,150.40
2018-04-14T01:42:48.703Z,129.40
2018-04-14T01:43:48.686Z,88.90
2018-04-14T01:44:48.672Z,96.10
2018-04-14T01:45:48.654Z,138.30
2018-04-14T01:46:48.638Z,101.20
2018-04-14T01:47:48.620Z,128.40
2018-04-14T01:48:48.603Z,93.80
2018-04-14T01:49:48.590Z,130.70
2018-04-14T01:50:48.572Z,109.00
2018-04-14T01:51:48.556Z,125.80
2018-04-14T01:52:48.541Z,87.10
2018-04-14T01:53:48.522Z,95.40
2018-04-14T01:54:48.509Z,110.30
2018-04-14T01:55:48.493Z,105.20
2018-04-14T01:56:48.472Z,138.40
2018-04-14T01:57:48.453Z,105.40
2018-04-14T01:58:48.437Z,130.80
2018-04-14T01:59:48.423Z,84.30
2018-04-14T02:00:48.405Z,132.80
2018-04-14T02:01:48.388Z,131.00
2018-04-14T02:02:48.372Z,103.90
2018-04-14T02:03:48.356Z,104.50
2018-04-14T02:04:48.338Z,122.30
2018-04-14T02:05:48.322Z,133.00
2018-04-14T02:06:48.305Z,125.70
2018-04-14T02:07:48.289Z,90.20
2018-04-14T02:08:48.272Z,143.50
2018-04-14T02:09:48.255Z,185.60
2018-04-14T02:10:48.344Z,136.10
2018-04-14T02:11:48.225Z,110.90
2018-04-14T02:12:48.205Z,115.10
2018-04-14T02:13:48.190Z,127.70
2018-04-14T02:14:48.171Z,129.50
2018-04-14T02:15:48.156Z,183.00
2018-04-14T02:16:48.138Z,204.20
2018-04-14T02:17:48.122Z,116.50
2018-04-14T02:18:48.107Z,100.00
2018-04-14T02:19:48.089Z,87.40
2018-04-14T02:20:48.071Z,153.60
2018-04-14T02:21:48.060Z,173.30
2018-04-14T02:22:48.041Z,135.00
2018-04-14T02:23:48.022Z,144.30
2018-04-14T02:24:48.006Z,122.50
2018-04-14T02:25:47.989Z,148.50
2018-04-14T02:26:47.972Z,155.30
2018-04-14T02:27:47.958Z,104.60
2018-04-14T02:28:47.940Z,149.80
2018-04-14T02:29:47.923Z,174.90
2018-04-14T02:30:47.905Z,122.70
2018-04-14T02:31:47.890Z,126.40
2018-04-14T02:32:47.870Z,178.10
2018-04-14T02:33:47.854Z,155.30
2018-04-14T02:34:47.840Z,115.70
2018-04-14T02:35:47.821Z,206.20
2018-04-14T02:36:47.804Z,133.90
2018-04-14T02:37:47.791Z,152.00
2018-04-14T02:38:47.771Z,147.10
2018-04-14T02:39:47.754Z,127.60
2018-04-14T02:40:47.740Z,121.20
2018-04-14T02:41:47.722Z,181.80
2018-04-14T02:42:47.703Z,139.20
2018-04-14T02:43:47.686Z,194.50
2018-04-14T02:44:47.669Z,133.80
2018-04-14T02:45:47.653Z,110.10
2018-04-14T02:46:47.637Z,189.90
2018-04-14T02:47:47.621Z,180.50
2018-04-14T02:48:47.605Z,135.80
2018-04-14T02:49:47.584Z,193.00
2018-04-14T02:50:47.569Z,126.30
2018-04-14T02:51:47.555Z,183.50
2018-04-14T02:52:47.537Z,153.70
2018-04-14T02:53:47.523Z,163.00
2018-04-14T02:54:47.504Z,183.60
2018-04-14T02:55:47.485Z,161.90
2018-04-14T02:56:47.467Z,234.10
2018-04-14T02:57:47.450Z,136.30
2018-04-14T02:58:47.436Z,164.50
2018-04-14T02:59:47.421Z,234.30
2018-04-14T03:00:47.403Z,159.60
2018-04-14T03:01:47.386Z,182.40
2018-04-14T03:02:47.367Z,124.20
2018-04-14T03:03:47.350Z,197.40
2018-04-14T03:04:47.334Z,195.90
2018-04-14T03:05:47.317Z,146.50
2018-04-14T03:06:47.301Z,195.40
2018-04-14T03:07:47.299Z,151.70
2018-04-14T03:08:47.265Z,135.00
2018-04-14T03:09:47.250Z,213.30
2018-04-14T03:10:47.233Z,237.60
2018-04-14T03:11:47.217Z,173.10
2018-04-14T03:12:47.198Z,208.30
2018-04-14T03:13:47.183Z,260.80
2018-04-14T03:14:47.168Z,157.60
2018-04-14T03:15:47.151Z,199.20
2018-04-14T03:16:47.134Z,173.70
2018-04-14T03:17:47.115Z,194.80
2018-04-14T03:18:47.100Z,224.30
2018-04-14T03:19:47.083Z,234.80
2018-04-14T03:20:47.063Z,242.30
2018-04-14T03:21:47.049Z,196.60
2018-04-14T03:22:47.029Z,244.40
2018-04-14T03:23:47.018Z,195.10
2018-04-14T03:24:46.998Z,209.20
2018-04-14T03:25:46.986Z,249.50
2018-04-14T03:26:46.967Z,214.90
2018-04-14T03:27:46.949Z,192.80
2018-04-14T03:28:46.951Z,224.80
2018-04-14T03:29:46.914Z,229.10
2018-04-14T03:30:46.898Z,205.40
2018-04-14T03:31:46.882Z,177.90
2018-04-14T03:32:46.867Z,252.10
2018-04-14T03:33:46.849Z,221.80
2018-04-14T03:34:46.843Z,206.70
2018-04-14T03:35:46.815Z,269.80
2018-04-14T03:36:46.798Z,225.30
2018-04-14T03:37:46.782Z,230.20
2018-04-14T03:38:46.764Z,230.20
2018-04-14T03:39:46.750Z,233.20
2018-04-14T03:40:46.731Z,201.60
2018-04-14T03:41:46.713Z,161.80
2018-04-14T03:42:46.738Z,221.40
2018-04-14T03:43:46.680Z,286.20
2018-04-14T03:44:46.664Z,214.80
2018-04-14T03:45:46.648Z,302.30
2018-04-14T03:46:46.636Z,247.70
2018-04-14T03:47:46.615Z,248.90
2018-04-14T03:48:46.597Z,240.80
2018-04-14T03:49:46.582Z,186.60
2018-04-14T03:50:46.566Z,276.00
2018-04-14T03:51:46.546Z,296.10
2018-04-14T03:52:46.529Z,254.90
2018-04-14T03:53:46.513Z,256.60
2018-04-14T03:54:46.499Z,242.30
2018-04-14T03:55:46.480Z,274.60
2018-04-14T03:56:46.464Z,165.90
2018-04-14T03:57:46.447Z,271.30
2018-04-14T03:58:46.432Z,274.00
2018-04-14T03:59:46.415Z,228.70
2018-04-14T04:00:46.396Z,248.80
2018-04-14T04:01:46.381Z,212.70
2018-04-14T04:02:46.366Z,268.30
2018-04-14T04:03:46.348Z,219.10
2018-04-14T04:04:46.331Z,185.70
2018-04-14T04:05:46.316Z,204.20
2018-04-14T04:06:46.298Z,181.90
2018-04-14T04:07:46.284Z,286.80
2018-04-14T04:08:46.267Z,233.90
2018-04-14T04:09:46.249Z,231.60
2018-04-14T04:10:46.231Z,214.00
2018-04-14T04:11:46.217Z,220.10
2018-04-14T04:12:46.201Z,177.70
2018-04-14T04:13:46.181Z,166.10
2018-04-14T04:14:46.164Z,128.70
2018-04-14T04:15:46.147Z,159.20
2018-04-14T04:16:46.131Z,125.80
2018-04-14T04:17:46.115Z,169.90
2018-04-14T04:18:46.103Z,116.60
2018-04-14T04:19:46.083Z,166.50
2018-04-14T04:20:46.065Z,89.10
2018-04-14T04:21:46.049Z,108.40
2018-04-14T04:22:46.030Z,120.40
2018-04-14T04:23:46.016Z,106.50
2018-04-14T04:24:45.998Z,131.20
2018-04-14T04:25:45.983Z,127.50
2018-04-14T04:26:45.966Z,116.50
2018-04-14T04:27:45.949Z,114.40
2018-04-14T04:28:45.936Z,151.50
2018-04-14T04:29:45.916Z,91.20
2018-04-14T04:30:45.901Z,78.00
2018-04-14T04:31:45.887Z,96.90
2018-04-14T04:32:45.865Z,101.50
2018-04-14T04:33:45.849Z,91.40
2018-04-14T04:34:45.833Z,99.50
2018-04-14T04:35:45.815Z,107.30
2018-04-14T04:36:45.797Z,99.10
2018-04-14T04:37:45.784Z,129.80
2018-04-14T04:38:45.765Z,110.50
2018-04-14T04:39:45.747Z,95.30
2018-04-14T04:40:45.732Z,119.50
2018-04-14T04:41:45.717Z,103.40
2018-04-14T04:42:45.700Z,104.20
2018-04-14T04:43:45.681Z,92.80
2018-04-14T04:44:45.665Z,97.10
2018-04-14T04:45:45.647Z,87.80
2018-04-14T04:46:45.632Z,141.80
2018-04-14T04:47:45.622Z,108.70
2018-04-14T04:48:45.642Z,100.70
2018-04-14T04:49:45.580Z,106.00
2018-04-14T04:50:45.563Z,100.40
2018-04-14T04:51:45.545Z,105.40
2018-04-14T04:52:45.528Z,103.90
2018-04-14T04:53:45.513Z,122.30
2018-04-14T04:54:45.498Z,104.30
2018-04-14T04:55:45.483Z,107.10
2018-04-14T04:56:45.465Z,88.10
2018-04-14T04:57:45.444Z,81.30
2018-04-14T04:58:45.427Z,112.10
2018-04-14T04:59:45.410Z,105.30
2018-04-14T05:00:45.394Z,105.90
2018-04-14T05:01:45.379Z,103.00
2018-04-14T05:02:45.358Z,131.30
2018-04-14T05:03:45.342Z,129.90
2018-04-14T05:04:45.324Z,141.00
2018-04-14T05:05:45.316Z,93.00
2018-04-14T05:06:45.292Z,135.80
2018-04-14T05:07:45.274Z,120.80
2018-04-14T05:08:45.255Z,104.60
2018-04-14T05:09:45.243Z,98.00
2018-04-14T05:10:45.222Z,145.90
2018-04-14T05:11:45.204Z,135.90
2018-04-14T05:12:45.189Z,128.20
2018-04-14T05:13:45.171Z,117.30
2018-04-14T05:14:45.152Z,113.40
2018-04-14T05:15:45.141Z,124.40
2018-04-14T05:16:45.119Z,121.00
2018-04-14T05:17:45.103Z,103.40
2018-04-14T05:18:45.085Z,133.60
2018-04-14T05:19:45.071Z,147.40
2018-04-14T05:20:45.052Z,185.70
2018-04-14T05:21:45.031Z,155.60
2018-04-14T05:22:45.015Z,167.70
2018-04-14T05:23:44.999Z,141.70
2018-04-14T05:24:44.985Z,126.00
2018-04-14T05:25:44.964Z,157.90
2018-04-14T05:26:44.947Z,146.60
2018-04-14T05:27:44.936Z,153.80
2018-04-14T05:28:44.912Z,154.90
2018-04-14T05:29:44.895Z,149.50
2018-04-14T05:30:44.877Z,161.20
2018-04-14T05:31:44.863Z,209.90
2018-04-14T05:32:44.842Z,197.60
2018-04-14T05:33:44.825Z,211.70
2018-04-14T05:34:44.807Z,232.30
2018-04-14T05:35:44.799Z,188.30
2018-04-14T05:36:44.774Z,194.70
2018-04-14T05:37:44.756Z,164.90
2018-04-14T05:38:44.740Z,232.40
2018-04-14T05:39:44.726Z,270.80
2018-04-14T05:40:44.703Z,199.00
2018-04-14T05:41:44.709Z,177.90
2018-04-14T05:42:44.683Z,221.90
2018-04-14T05:43:44.656Z,219.10
2018-04-14T05:44:44.634Z,199.80
2018-04-14T05:45:44.621Z,264.40
2018-04-14T05:46:44.608Z,258.90
2018-04-14T05:47:44.588Z,174.90
2018-04-14T05:48:44.571Z,204.00
2018-04-14T05:49:44.559Z,209.00
2018-04-14T05:50:44.539Z,226.70
2018-04-14T05:51:44.515Z,210.70
2018-04-14T05:52:44.501Z,269.50
2018-04-14T05:53:44.480Z,201.10
2018-04-14T05:54:44.462Z,207.40
2018-04-14T05:55:44.447Z,190.10
2018-04-14T05:56:44.429Z,219.00
2018-04-14T05:57:44.412Z,275.80
2018-04-14T05:58:44.395Z,211.60
2018-04-14T05:59:44.378Z,205.10
2018-04-14T06:00:44.361Z,251.40
2018-04-14T06:01:44.343Z,227.30
2018-04-14T06:02:44.334Z,186.80
2018-04-14T06:03:44.315Z,221.40
2018-04-14T06:04:44.291Z,165.90
2018-04-14T06:05:44.274Z,199.60
2018-04-14T06:06:44.259Z,218.10
2018-04-14T06:07:44.240Z,264.60
2018-04-14T06:08:44.222Z,203.40
2018-04-14T06:09:44.205Z,180.20
2018-04-14T06:10:44.189Z,160.00
2018-04-14T06:11:44.172Z,193.10
2018-04-14T06:12:44.163Z,199.20
2018-04-14T06:13:44.139Z,181.70
2018-04-14T06:14:44.119Z,223.10
2018-04-14T06:15:44.104Z,182.40
2018-04-14T06:16:44.089Z,199.80
2018-04-14T06:17:44.066Z,166.10
2018-04-14T06:18:44.050Z,155.30
2018-04-14T06:19:44.033Z,195.10
2018-04-14T06:20:44.022Z,207.50
2018-04-14T06:21:43.997Z,186.10
2018-04-14T06:22:43.985Z,167.70
2018-04-14T06:23:43.964Z,260.70
2018-04-14T06:24:43.947Z,241.30
2018-04-14T06:25:43.929Z,175.00
2018-04-14T06:26:43.915Z,174.00
2018-04-14T06:27:43.896Z,200.00
2018-04-14T06:28:43.878Z,226.50
2018-04-14T06:29:43.862Z,303.70
2018-04-14T06:30:43.844Z,177.40
2018-04-14T06:31:43.837Z,151.60
2018-04-14T06:32:43.813Z,159.30
2018-04-14T06:33:43.798Z,196.40
2018-04-14T06:34:43.777Z,142.70
2018-04-14T06:35:43.761Z,142.50
2018-04-14T06:36:43.742Z,139.90
2018-04-14T06:37:43.730Z,140.80
2018-04-14T06:38:43.711Z,123.50
2018-04-14T06:39:43.693Z,149.20
2018-04-14T06:40:43.677Z,139.70
2018-04-14T06:41:43.661Z,137.10
2018-04-14T06:42:43.643Z,135.70
2018-04-14T06:43:43.627Z,141.80
2018-04-14T06:44:43.608Z,137.90
2018-04-14T06:45:43.601Z,114.70
2018-04-14T06:46:43.580Z,151.10
2018-04-14T06:47:43.569Z,106.20
2018-04-14T06:48:43.546Z,136.00
2018-04-14T06:49:43.526Z,131.60
2018-04-14T06:50:43.511Z,159.40
2018-04-14T06:51:43.499Z,238.80
2018-04-14T06:52:43.476Z,154.30
2018-04-14T06:53:43.463Z,127.40
2018-04-14T06:54:43.464Z,150.70
2018-04-14T06:55:43.438Z,149.70
2018-04-14T06:56:43.414Z,194.20
2018-04-14T06:57:43.401Z,148.10
2018-04-14T06:58:43.379Z,196.80
2018-04-14T06:59:43.363Z,212.60
2018-04-14T07:00:43.344Z,134.00
2018-04-14T07:01:43.328Z,197.90
2018-04-14T07:02:43.312Z,228.60
2018-04-14T07:03:43.296Z,195.90
2018-04-14T07:04:43.283Z,143.30
2018-04-14T07:05:43.266Z,256.50
2018-04-14T07:06:43.252Z,214.40
2018-04-14T07:07:43.233Z,255.30
2018-04-14T07:08:43.230Z,174.60
2018-04-14T07:09:43.202Z,160.60
2018-04-14T07:10:43.183Z,212.40
2018-04-14T07:11:43.168Z,239.00
2018-04-14T07:12:43.161Z,156.70
2018-04-14T07:13:43.138Z,173.80
2018-04-14T07:14:43.122Z,199.90
2018-04-14T07:15:43.106Z,202.10
2018-04-14T07:16:43.088Z,206.00
2018-04-14T07:17:43.075Z,154.40
2018-04-14T07:18:43.059Z,195.60
2018-04-14T07:19:43.044Z,180.60
2018-04-14T07:20:43.032Z,165.80
2018-04-14T07:21:43.013Z,191.20
2018-04-14T07:22:42.997Z,154.50
2018-04-14T07:23:42.985Z,163.40
2018-04-14T07:24:42.968Z,144.10
2018-04-14T07:25:42.951Z,173.50
2018-04-14T07:26:42.942Z,190.30
2018-04-14T07:27:42.925Z,209.40
2018-04-14T07:28:42.912Z,131.00
2018-04-14T07:29:42.893Z,194.10
2018-04-14T07:30:42.882Z,197.90
2018-04-14T07:31:42.866Z,163.30
2018-04-14T07:32:42.853Z,144.00
2018-04-14T07:33:42.836Z,174.30
2018-04-14T07:34:42.827Z,108.00
2018-04-14T07:35:42.810Z,159.10
2018-04-14T07:36:42.794Z,144.80
2018-04-14T07:37:42.779Z,118.70
2018-04-14T07:38:42.764Z,151.70
2018-04-14T07:39:42.750Z,116.70
2018-04-14T07:40:42.756Z,123.50
2018-04-14T07:41:42.724Z,116.50
2018-04-14T07:42:42.704Z,129.60
2018-04-14T07:43:42.692Z,112.20
2018-04-14T07:44:42.675Z,115.20
2018-04-14T07:45:42.661Z,126.40
2018-04-14T07:46:42.647Z,125.00
2018-04-14T07:47:42.634Z,103.90
2018-04-14T07:48:42.624Z,105.50
2018-04-14T07:49:42.606Z,149.30
2018-04-14T07:50:42.590Z,108.50
2018-04-14T07:51:42.624Z,120.10
2018-04-14T07:52:42.560Z,119.30
2018-04-14T07:53:42.546Z,107.60
2018-04-14T07:54:42.530Z,135.90
2018-04-14T07:55:42.523Z,100.90
2018-04-14T07:56:42.502Z,114.10
2018-04-14T07:57:42.496Z,106.10
2018-04-14T07:58:42.476Z,125.30
2018-04-14T07:59:42.462Z,119.20
2018-04-14T08:00:42.443Z,96.90
2018-04-14T08:01:42.434Z,107.60
2018-04-14T08:02:42.415Z,136.50
2018-04-14T08:03:42.401Z,103.20
2018-04-14T08:04:42.386Z,92.00
2018-04-14T08:05:42.374Z,95.30
2018-04-14T08:06:42.362Z,88.30
2018-04-14T08:07:42.350Z,93.40
2018-04-14T08:08:42.332Z,98.40
2018-04-14T08:09:42.318Z,95.60
2018-04-14T08:10:42.305Z,88.30
2018-04-14T08:11:42.306Z,90.40
2018-04-14T08:12:42.289Z,92.20
2018-04-14T08:13:42.269Z,98.20
2018-04-14T08:14:42.251Z,91.70
2018-04-14T08:15:42.245Z,93.80
2018-04-14T08:16:42.225Z,86.60
2018-04-14T08:17:42.210Z,89.60
2018-04-14T08:18:42.202Z,98.50
2018-04-14T08:19:42.184Z,101.30
2018-04-14T08:20:42.169Z,92.00
2018-04-14T08:21:42.160Z,88.10
2018-04-14T08:22:42.143Z,94.20
2018-04-14T08:23:42.132Z,106.20
2018-04-14T08:24:42.122Z,89.90
2018-04-14T08:25:42.118Z,88.90
2018-04-14T08:26:42.089Z,89.30
2018-04-14T08:27:42.073Z,97.90
2018-04-14T08:28:42.067Z,101.50
2018-04-14T08:29:42.044Z,84.50
2018-04-14T08:30:42.031Z,89.30
2018-04-14T08:31:42.020Z,88.20
2018-04-14T08:32:42.009Z,88.80
2018-04-14T08:33:41.994Z,86.10
2018-04-14T08:34:41.978Z,87.70
2018-04-14T08:35:41.958Z,89.70
2018-04-14T08:36:41.942Z,80.10
2018-04-14T08:37:41.929Z,89.40
2018-04-14T08:38:41.935Z,80.70
2018-04-14T08:39:41.900Z,89.70
2018-04-14T08:40:41.885Z,81.00
2018-04-14T08:41:41.874Z,88.80
2018-04-14T08:42:41.856Z,81.10
2018-04-14T08:43:41.850Z,80.60
2018-04-14T08:44:41.838Z,77.90
2018-04-14T08:45:41.820Z,75.80
2018-04-14T08:46:41.807Z,71.70
2018-04-14T08:47:41.790Z,72.80
2018-04-14T08:48:41.774Z,79.00
2018-04-14T08:49:41.758Z,72.00
2018-04-14T08:50:41.753Z,69.70
2018-04-14T08:51:41.734Z,67.10
2018-04-14T08:52:41.721Z,65.80
2018-04-14T08:53:41.709Z,63.60
2018-04-14T08:54:41.699Z,63.80
2018-04-14T08:55:41.685Z,66.60
2018-04-14T08:56:41.677Z,61.60
2018-04-14T08:57:41.659Z,65.70
2018-04-14T08:58:41.648Z,61.90
2018-04-14T08:59:41.641Z,60.90
2018-04-14T09:00:41.622Z,61.30
2018-04-14T09:01:41.611Z,65.90
2018-04-14T09:02:41.600Z,63.90
2018-04-14T09:03:41.592Z,67.50
2018-04-14T09:04:41.579Z,65.30
2018-04-14T09:05:41.567Z,62.60
2018-04-14T09:06:41.554Z,74.90
2018-04-14T09:07:41.544Z,63.60
2018-04-14T09:08:41.529Z,61.00
2018-04-14T09:09:41.517Z,62.80
2018-04-14T09:10:41.509Z,62.60
2018-04-14T09:11:41.493Z,62.70
2018-04-14T09:12:41.481Z,59.30
2018-04-14T09:13:41.474Z,59.30
2018-04-14T09:14:41.458Z,57.40
2018-04-14T09:15:41.445Z,54.60
2018-04-14T09:16:41.431Z,54.10
2018-04-14T09:17:41.419Z,55.80
2018-04-14T09:18:41.407Z,57.60
2018-04-14T09:19:41.397Z,57.30
2018-04-14T09:20:41.388Z,57.20
2018-04-14T09:21:41.369Z,62.10
2018-04-14T09:22:41.368Z,59.30
2018-04-14T09:23:41.353Z,61.20
2018-04-14T09:24:41.332Z,60.30
2018-04-14T09:25:41.331Z,59.20
2018-04-14T09:26:41.307Z,60.10
2018-04-14T09:27:41.298Z,59.20
2018-04-14T09:28:41.283Z,65.00
2018-04-14T09:29:41.272Z,61.30
2018-04-14T09:30:41.259Z,56.80
2018-04-14T09:31:41.244Z,57.60
2018-04-14T09:32:41.236Z,56.60
2018-04-14T09:33:41.219Z,54.20
2018-04-14T09:34:41.213Z,51.00
2018-04-14T09:35:41.198Z,52.60
2018-04-14T09:36:41.182Z,49.60
2018-04-14T09:37:41.172Z,52.90
2018-04-14T09:38:41.158Z,48.40
2018-04-14T09:39:41.147Z,51.60
2018-04-14T09:40:41.137Z,45.50
2018-04-14T09:41:41.137Z,44.70
2018-04-14T09:42:41.112Z,47.10
2018-04-14T09:43:41.096Z,47.20
2018-04-14T09:44:41.084Z,45.60
2018-04-14T09:45:41.071Z,45.20
2018-04-14T09:46:41.061Z,46.70
2018-04-14T09:47:41.057Z,45.20
2018-04-14T09:48:41.036Z,44.00
2018-04-14T09:49:41.022Z,45.00
2018-04-14T09:50:41.009Z,43.70
2018-04-14T09:51:40.997Z,42.30
2018-04-14T09:52:40.993Z,42.30
2018-04-14T09:53:40.976Z,42.70
2018-04-14T09:54:40.964Z,40.50
2018-04-14T09:55:40.959Z,39.50
2018-04-14T09:56:40.938Z,41.20
2018-04-14T09:57:40.926Z,39.60
2018-04-14T09:58:40.920Z,38.40
2018-04-14T09:59:40.905Z,37.00
2018-04-14T10:00:40.899Z,38.70
2018-04-14T10:01:40.882Z,39.30
2018-04-14T10:02:40.873Z,38.80
2018-04-14T10:03:40.858Z,36.50
2018-04-14T10:04:40.850Z,39.40
2018-04-14T10:05:40.836Z,37.60
2018-04-14T10:06:40.830Z,35.70
2018-04-14T10:07:40.817Z,34.70
2018-04-14T10:08:40.803Z,34.50
2018-04-14T10:09:40.790Z,35.40
2018-04-14T10:10:40.781Z,34.70
2018-04-14T10:11:40.771Z,32.90
2018-04-14T10:12:40.764Z,34.80
2018-04-14T10:13:40.767Z,36.20
2018-04-14T10:14:40.735Z,36.30
2018-04-14T10:15:40.724Z,31.80
2018-04-14T10:16:40.714Z,35.50
2018-04-14T10:17:40.702Z,33.20
2018-04-14T10:18:40.693Z,30.50
2018-04-14T10:19:40.679Z,30.60
2018-04-14T10:20:40.670Z,32.20
2018-04-14T10:21:40.658Z,33.00
2018-04-14T10:22:40.649Z,29.90
2018-04-14T10:23:40.633Z,31.10
2018-04-14T10:24:40.622Z,29.70
2018-04-14T10:25:40.611Z,32.10
2018-04-14T10:26:40.598Z,30.70
2018-04-14T10:27:40.586Z,31.20
2018-04-14T10:28:40.574Z,30.80
2018-04-14T10:29:40.568Z,32.30
2018-04-14T10:30:40.551Z,31.50
2018-04-14T10:31:40.538Z,31.70
2018-04-14T10:32:40.530Z,28.10
2018-04-14T10:33:40.517Z,30.60
2018-04-14T10:34:40.503Z,31.30
2018-04-14T10:35:40.490Z,30.20
2018-04-14T10:36:40.478Z,28.10
2018-04-14T10:37:40.486Z,29.60
2018-04-14T10:38:40.455Z,30.10
2018-04-14T10:39:40.443Z,31.60
2018-04-14T10:40:40.432Z,28.30
2018-04-14T10:41:40.418Z,28.70
2018-04-14T10:42:40.408Z,27.50
2018-04-14T10:43:40.399Z,28.70
2018-04-14T10:44:40.383Z,28.90
2018-04-14T10:45:40.374Z,27.30
2018-04-14T10:46:40.361Z,28.50
2018-04-14T10:47:40.349Z,31.30
2018-04-14T10:48:40.344Z,27.60
2018-04-14T10:49:40.326Z,26.20
2018-04-14T10:50:40.317Z,28.20
2018-04-14T10:51:40.306Z,26.60
2018-04-14T10:52:40.302Z,29.40
2018-04-14T10:53:40.281Z,26.80
2018-04-14T10:54:40.273Z,29.70
2018-04-14T10:55:40.262Z,29.40
2018-04-14T10:56:40.250Z,26.20
2018-04-14T10:57:40.240Z,26.70
2018-04-14T10:58:40.228Z,25.70
2018-04-14T10:59:40.228Z,25.70
2018-04-14T11:00:40.206Z,24.70
2018-04-14T11:01:40.199Z,24.90
2018-04-14T11:02:40.193Z,25.30
2018-04-14T11:03:40.177Z,28.70
2018-04-14T11:04:40.165Z,26.50
2018-04-14T11:05:40.157Z,26.00
2018-04-14T11:06:40.145Z,27.40
2018-04-14T11:07:40.140Z,25.60
2018-04-14T11:08:40.125Z,29.30
2018-04-14T11:09:40.113Z,27.70
2018-04-14T11:10:40.105Z,26.90
2018-04-14T11:11:40.092Z,27.10
2018-04-14T11:12:40.081Z,27.00
2018-04-14T11:13:40.071Z,29.00
2018-04-14T11:14:40.060Z,25.40
2018-04-14T11:15:40.050Z,26.70
2018-04-14T11:16:40.038Z,26.10
2018-04-14T11:17:40.030Z,28.20
2018-04-14T11:18:40.018Z,29.10
2018-04-14T11:19:40.005Z,25.20
2018-04-14T11:20:39.996Z,28.50
2018-04-14T11:21:39.988Z,27.50
2018-04-14T11:22:39.974Z,24.60
2018-04-14T11:23:39.962Z,25.50
2018-04-14T11:24:39.949Z,26.20
2018-04-14T11:25:39.946Z,28.20
2018-04-14T11:26:39.934Z,23.90
2018-04-14T11:27:39.924Z,25.10
2018-04-14T11:28:39.968Z,24.80
2018-04-14T11:29:39.902Z,24.40
2018-04-14T11:30:39.898Z,23.00
2018-04-14T11:31:39.896Z,25.50
2018-04-14T11:32:39.882Z,24.00
2018-04-14T11:33:39.868Z,23.80
2018-04-14T11:34:39.860Z,25.90
2018-04-14T11:35:39.852Z,24.20
2018-04-14T11:36:39.852Z,22.40
2018-04-14T11:37:39.837Z,22.90
2018-04-14T11:38:39.837Z,24.50
2018-04-14T11:39:39.821Z,22.30
2018-04-14T11:40:39.814Z,22.30
2018-04-14T11:41:39.804Z,24.20
2018-04-14T11:42:39.796Z,22.50
2018-04-14T11:43:39.799Z,23.30
2018-04-14T11:44:39.780Z,23.50
2018-04-14T11:45:39.775Z,21.70
2018-04-14T11:46:39.765Z,25.00
2018-04-14T11:47:39.759Z,20.80
2018-04-14T11:48:39.752Z,20.50
2018-04-14T11:49:39.745Z,19.70
2018-04-14T11:50:39.742Z,20.20
2018-04-14T11:51:39.732Z,21.90
2018-04-14T11:52:39.733Z,20.60
2018-04-14T11:53:39.722Z,21.30
2018-04-14T11:54:39.713Z,19.80
2018-04-14T11:55:39.717Z,20.90
2018-04-14T11:56:39.741Z,21.00
2018-04-14T11:57:39.698Z,20.90
2018-04-14T11:58:39.691Z,22.00
2018-04-14T11:59:39.689Z,20.00
2018-04-14T12:00:39.676Z,20.50
2018-04-14T12:01:39.688Z,20.20
2018-04-14T12:02:39.669Z,18.40
2018-04-14T12:03:39.721Z,19.30
2018-04-14T12:04:39.656Z,21.00
2018-04-14T12:05:39.651Z,21.30
2018-04-14T12:06:39.643Z,21.00
2018-04-14T12:07:39.638Z,21.10
2018-04-14T12:08:39.631Z,21.70
2018-04-14T12:09:39.637Z,21.90
2018-04-14T12:10:39.619Z,24.20
2018-04-14T12:11:39.616Z,22.70
2018-04-14T12:12:39.609Z,22.70
2018-04-14T12:13:39.599Z,21.90
2018-04-14T12:14:39.596Z,21.40
2018-04-14T12:15:39.598Z,23.00
2018-04-14T12:16:39.582Z,22.40
2018-04-14T12:17:39.576Z,21.50
2018-04-14T12:18:39.583Z,21.40
2018-04-14T12:19:39.556Z,21.70
2018-04-14T12:20:39.551Z,21.60
2018-04-14T12:21:39.541Z,22.40
2018-04-14T12:22:39.539Z,22.30
2018-04-14T12:23:39.531Z,20.40
2018-04-14T12:24:39.519Z,21.90
2018-04-14T12:25:39.516Z,21.30
2018-04-14T12:26:39.505Z,22.50
2018-04-14T12:27:39.496Z,21.20
2018-04-14T12:28:39.487Z,26.20
2018-04-14T12:29:39.477Z,23.70
2018-04-14T12:30:39.472Z,23.90
2018-04-14T12:31:39.472Z,26.40
2018-04-14T12:32:39.464Z,26.10
2018-04-14T12:33:39.442Z,27.00
2018-04-14T12:34:39.473Z,25.20
2018-04-14T12:35:39.429Z,26.70
2018-04-14T12:36:39.414Z,25.50
2018-04-14T12:37:39.404Z,25.50
2018-04-14T12:38:39.397Z,28.40
2018-04-14T12:39:39.395Z,27.20
2018-04-14T12:40:39.379Z,31.20